createdAt,value
2023-01-20T00:13:34.729Z,100
2023-01-20T00:29:17.629Z,100
2023-01-20T00:45:00.561Z,100
2023-01-20T01:00:43.282Z,100
2023-01-20T01:16:26.037Z,100
2023-01-20T01:32:08.652Z,100
2023-01-20T01:47:51.733Z,100
2023-01-20T02:03:34.708Z,100
2023-01-20T02:19:17.801Z,100
2023-01-20T02:35:00.627Z,100
2023-01-20T02:50:43.703Z,99.24
2023-01-20T03:06:26.665Z,98.77
2023-01-20T03:22:09.775Z,99.07
2023-01-20T03:37:53.034Z,98.71
2023-01-20T03:53:36.243Z,98.98
2023-01-20T04:09:19.271Z,99.14
2023-01-20T04:25:01.684Z,99.46
2023-01-20T04:40:44.273Z,100
2023-01-20T04:56:27.210Z,100
2023-01-20T05:12:10.454Z,100
2023-01-20T05:27:53.741Z,100
2023-01-20T05:43:36.457Z,100
2023-01-20T05:59:19.490Z,100
2023-01-20T06:15:02.374Z,100
2023-01-20T06:30:45.685Z,100
2023-01-20T06:46:28.680Z,100
2023-01-20T07:02:11.618Z,100
2023-01-20T07:17:54.910Z,100
2023-01-20T07:33:38.071Z,100
2023-01-20T07:49:20.539Z,100
2023-01-20T08:05:02.911Z,100
2023-01-20T08:20:46.027Z,100
2023-01-20T08:36:28.568Z,100
2023-01-20T08:52:11.641Z,100
2023-01-20T09:07:54.135Z,100
2023-01-20T09:23:36.499Z,100
2023-01-20T09:39:19.490Z,99.52
2023-01-20T09:55:01.991Z,99.19
2023-01-20T10:10:45.162Z,98.43
2023-01-20T10:26:27.414Z,98.73
2023-01-20T10:42:10.302Z,97.46
2023-01-20T10:57:53.236Z,98.38
2023-01-20T11:13:36.122Z,94.27
2023-01-20T11:29:19.011Z,94.56
2023-01-20T11:45:02.007Z,94.51
2023-01-20T12:00:45.076Z,92.61
2023-01-20T12:01:32.514Z,92.21
2023-01-20T12:17:15.620Z,92.29
2023-01-20T12:32:58.745Z,93.05
2023-01-20T12:48:41.593Z,92.2
2023-01-20T13:04:23.978Z,91.68
2023-01-20T13:20:06.725Z,91.12
2023-01-20T13:35:49.372Z,88.44
2023-01-20T13:51:32.609Z,90.11
2023-01-20T14:07:15.219Z,90.18
2023-01-20T14:22:58.503Z,90.35
2023-01-20T14:38:40.998Z,90.4
2023-01-20T14:54:24.153Z,90.57
2023-01-20T15:10:07.268Z,90.8
2023-01-20T15:25:50.456Z,91.36
2023-01-20T15:41:32.803Z,91.83
2023-01-20T15:57:15.984Z,92.27
2023-01-20T16:12:58.670Z,93.14
2023-01-20T16:28:41.889Z,93.62
2023-01-20T16:44:24.296Z,94.76
2023-01-20T17:00:07.229Z,95
2023-01-20T17:15:49.870Z,95.93
2023-01-20T17:31:32.320Z,97.29
2023-01-20T17:47:15.026Z,97.08
2023-01-20T18:02:57.572Z,97.2
2023-01-20T18:18:40.689Z,97.75
2023-01-20T18:34:24.010Z,97.77
2023-01-20T18:50:06.450Z,97.31
2023-01-20T19:05:49.439Z,97.3
2023-01-20T19:21:31.993Z,97.6
2023-01-20T19:37:15.189Z,98.11
2023-01-20T19:52:58.244Z,97.82
2023-01-20T20:08:40.967Z,97.76
2023-01-20T20:24:23.649Z,97.99
2023-01-20T20:40:06.145Z,97.97
2023-01-20T20:55:48.543Z,97.46
2023-01-20T21:11:31.132Z,97.29
2023-01-20T21:27:14.145Z,98.12
2023-01-20T21:42:57.424Z,98.35
2023-01-20T21:58:40.738Z,98.15
2023-01-20T22:14:23.718Z,97.88
2023-01-20T22:30:06.709Z,97.87
2023-01-20T23:01:31.903Z,98.26
2023-01-20T23:17:14.961Z,98.1
2023-01-20T23:32:58.298Z,97.77
2023-01-20T23:48:40.919Z,98.47
